Time;durP1;ratioP1;P1;durP2;ratioP2;P2;SDS_P1;SDS_P2;PMS_P1;PMS_P2;Temp;Humidity;BMP_temperature;BMP_pressure;BME280_temperature;BME280_humidity;BME280_pressure;Samples;Min_cycle;Max_cycle;Signal;HPM_P1;HPM_P2
2020/12/31 00:02:18;;;;;;;14.20;8.07;;;4.50;92.70;;;;;;5095916;28;20103;-80
2020/12/31 00:04:43;;;;;;;16.23;9.17;;;4.50;92.60;;;;;;5097036;28;20012;-79
2020/12/31 00:07:09;;;;;;;18.33;9.60;;;4.50;92.70;;;;;;5096202;28;20111;-80
2020/12/31 00:09:35;;;;;;;17.33;9.13;;;4.50;92.70;;;;;;5097120;28;20028;-80
2020/12/31 00:12:04;;;;;;;15.80;7.93;;;4.50;92.70;;;;;;5097083;28;20031;-80
2020/12/31 00:14:30;;;;;;;14.73;8.03;;;4.50;92.70;;;;;;5096738;28;20421;-80
2020/12/31 00:16:56;;;;;;;17.17;8.07;;;4.50;92.70;;;;;;5095387;28;20039;-80
2020/12/31 00:19:21;;;;;;;17.30;8.30;;;4.50;92.70;;;;;;5095520;28;20028;-79
2020/12/31 00:21:47;;;;;;;14.63;7.73;;;4.50;92.70;;;;;;5096636;28;20027;-80
2020/12/31 00:24:12;;;;;;;14.03;7.07;;;4.50;92.70;;;;;;5078499;28;20119;-80
2020/12/31 00:26:38;;;;;;;14.27;7.83;;;4.50;92.70;;;;;;5096560;28;20028;-80
2020/12/31 00:29:04;;;;;;;17.03;8.90;;;4.50;92.80;;;;;;5096565;28;20422;-80
2020/12/31 00:31:29;;;;;;;13.27;7.00;;;4.50;92.80;;;;;;5095707;28;20024;-80
2020/12/31 00:33:55;;;;;;;13.27;7.37;;;4.50;92.80;;;;;;5095294;28;20031;-80
2020/12/31 00:36:21;;;;;;;14.13;7.50;;;4.50;92.90;;;;;;5096643;28;20106;-80
2020/12/31 00:38:51;;;;;;;13.23;6.90;;;4.50;92.80;;;;;;5061595;28;20024;-80
2020/12/31 00:41:20;;;;;;;12.43;6.23;;;4.50;92.80;;;;;;5094935;28;20365;-80
2020/12/31 00:43:46;;;;;;;13.37;6.70;;;4.50;92.80;;;;;;5095199;28;20029;-80
2020/12/31 00:46:12;;;;;;;14.07;7.20;;;4.50;92.90;;;;;;5096132;28;20055;-79
2020/12/31 00:48:37;;;;;;;16.40;7.80;;;4.50;92.90;;;;;;5078203;28;20028;-79
2020/12/31 00:51:03;;;;;;;12.90;7.10;;;4.40;92.90;;;;;;5096439;28;20055;-79
2020/12/31 00:53:29;;;;;;;14.37;7.00;;;4.50;93.00;;;;;;5095261;28;20036;-79
2020/12/31 00:55:54;;;;;;;16.37;6.50;;;4.50;93.00;;;;;;5094871;28;20064;-79
2020/12/31 00:58:20;;;;;;;16.20;8.30;;;4.50;93.00;;;;;;5096216;28;20494;-79
2020/12/31 01:00:45;;;;;;;11.53;6.40;;;4.50;93.00;;;;;;5094703;28;20034;-79
2020/12/31 01:03:12;;;;;;;14.20;6.40;;;4.40;92.90;;;;;;5096097;28;20031;-79
2020/12/31 01:05:37;;;;;;;11.90;6.23;;;4.40;93.00;;;;;;5094483;28;20024;-79
2020/12/31 01:08:03;;;;;;;13.97;7.10;;;4.50;93.00;;;;;;5093859;28;20074;-79
2020/12/31 01:10:29;;;;;;;12.00;6.30;;;4.40;93.00;;;;;;5094658;28;20471;-79
2020/12/31 01:12:54;;;;;;;11.03;6.07;;;4.40;93.00;;;;;;5095705;28;20107;-80
2020/12/31 01:15:20;;;;;;;14.97;5.70;;;4.50;93.00;;;;;;5094634;28;20028;-79
2020/12/31 01:17:45;;;;;;;12.47;5.60;;;4.40;93.00;;;;;;5094444;28;20552;-79
2020/12/31 01:20:11;;;;;;;10.40;5.40;;;4.40;93.00;;;;;;5095497;28;20060;-79
2020/12/31 01:22:37;;;;;;;12.67;6.03;;;4.40;93.10;;;;;;5077435;28;20074;-79
2020/12/31 01:25:04;;;;;;;10.80;5.70;;;4.40;93.10;;;;;;5095306;28;20039;-79
2020/12/31 01:27:29;;;;;;;13.93;5.73;;;4.40;93.00;;;;;;5094191;28;20039;-79
2020/12/31 01:29:55;;;;;;;12.70;6.00;;;4.40;93.00;;;;;;5095564;28;20024;-79
2020/12/31 01:32:25;;;;;;;12.57;6.13;;;4.40;93.00;;;;;;5095288;28;20024;-79
2020/12/31 01:34:52;;;;;;;11.17;6.10;;;4.40;93.10;;;;;;5095338;28;20036;-80
2020/12/31 01:37:18;;;;;;;12.33;5.33;;;4.40;93.10;;;;;;5094010;28;20054;-79
2020/12/31 01:39:45;;;;;;;13.57;7.03;;;4.40;93.10;;;;;;5093947;28;20036;-79
2020/12/31 01:42:10;;;;;;;13.33;6.40;;;4.40;93.10;;;;;;5095050;28;20028;-79
2020/12/31 01:44:36;;;;;;;12.30;6.87;;;4.40;93.00;;;;;;5094935;28;20127;-79
2020/12/31 01:47:02;;;;;;;10.03;5.73;;;4.40;93.10;;;;;;5094978;28;20535;-79
2020/12/31 01:49:30;;;;;;;10.10;5.77;;;4.40;93.10;;;;;;5076726;28;20032;-79
2020/12/31 01:51:56;;;;;;;13.77;6.40;;;4.40;93.10;;;;;;5077005;28;20081;-79
2020/12/31 01:54:23;;;;;;;10.20;5.97;;;4.30;93.10;;;;;;5094819;28;20383;-79
2020/12/31 01:56:49;;;;;;;10.53;6.00;;;4.30;93.10;;;;;;5094878;28;20035;-80
2020/12/31 01:59:16;;;;;;;12.47;6.47;;;4.30;93.10;;;;;;5060075;28;20028;-80
2020/12/31 02:01:42;;;;;;;12.03;6.17;;;4.30;93.10;;;;;;5094715;28;20027;-79
2020/12/31 02:04:08;;;;;;;13.67;7.30;;;4.30;93.10;;;;;;5094762;28;20089;-80
2020/12/31 02:06:34;;;;;;;12.23;7.83;;;4.30;93.30;;;;;;5094572;28;20039;-80
2020/12/31 02:09:00;;;;;;;16.43;9.27;;;4.30;93.10;;;;;;5076784;28;20028;-79
2020/12/31 02:11:26;;;;;;;16.93;10.93;;;4.30;93.10;;;;;;5093369;28;20051;-79
2020/12/31 02:13:52;;;;;;;20.90;12.87;;;4.30;93.20;;;;;;5076607;28;20032;-79
2020/12/31 02:16:20;;;;;;;18.97;11.43;;;4.30;93.20;;;;;;5094617;28;20111;-79
2020/12/31 02:18:58;;;;;;;21.00;12.47;;;4.30;93.20;;;;;;5093082;28;20032;-79
2020/12/31 02:21:25;;;;;;;22.23;12.73;;;4.40;93.30;;;;;;5092934;28;20055;-79
2020/12/31 02:23:51;;;;;;;24.07;13.83;;;4.30;93.30;;;;;;5094267;28;20034;-79
2020/12/31 02:26:23;;;;;;;22.70;13.73;;;4.30;93.40;;;;;;5092817;28;20101;-78
2020/12/31 02:28:49;;;;;;;22.73;13.70;;;4.30;93.50;;;;;;5094312;28;20031;-79
2020/12/31 02:31:15;;;;;;;25.10;14.03;;;4.30;93.50;;;;;;5094168;28;20375;-79
2020/12/31 02:33:47;;;;;;;22.27;12.57;;;4.30;93.50;;;;;;5094081;28;20105;-80
2020/12/31 02:36:14;;;;;;;21.73;12.93;;;4.20;93.50;;;;;;5092975;28;20141;-79
2020/12/31 02:38:41;;;;;;;20.73;12.30;;;4.30;93.60;;;;;;5075895;28;20051;-79
2020/12/31 02:41:07;;;;;;;22.97;13.43;;;4.30;93.60;;;;;;5076082;28;20028;-80
2020/12/31 02:43:33;;;;;;;19.97;11.73;;;4.30;93.60;;;;;;5094406;28;20036;-79
2020/12/31 02:45:59;;;;;;;18.80;10.90;;;4.30;93.60;;;;;;5093706;28;20050;-80
2020/12/31 02:48:26;;;;;;;20.07;10.80;;;4.20;93.60;;;;;;5076091;28;20043;-79
2020/12/31 02:50:51;;;;;;;18.33;11.13;;;4.20;93.60;;;;;;5093845;28;20524;-80
2020/12/31 02:53:17;;;;;;;16.00;10.80;;;4.20;93.60;;;;;;5075766;28;20020;-79
2020/12/31 02:55:42;;;;;;;17.67;10.10;;;4.30;93.60;;;;;;5093855;28;20025;-80
2020/12/31 02:58:09;;;;;;;18.97;10.60;;;4.30;93.70;;;;;;5092737;28;20089;-80
2020/12/31 03:00:35;;;;;;;17.10;10.23;;;4.30;93.70;;;;;;5093817;28;20387;-80
2020/12/31 03:03:01;;;;;;;19.60;10.80;;;4.30;93.70;;;;;;5092423;28;20546;-80
2020/12/31 03:05:26;;;;;;;17.07;10.67;;;4.20;93.80;;;;;;5093569;28;20054;-79
2020/12/31 03:07:52;;;;;;;17.90;10.43;;;4.30;93.70;;;;;;5092949;28;20114;-80
2020/12/31 03:10:17;;;;;;;17.03;10.83;;;4.20;93.70;;;;;;5093943;28;20028;-79
2020/12/31 03:12:43;;;;;;;17.97;9.50;;;4.20;93.70;;;;;;5092383;28;20097;-80
2020/12/31 03:15:13;;;;;;;15.90;10.13;;;4.20;93.70;;;;;;5075711;28;20054;-80
2020/12/31 03:17:39;;;;;;;15.77;10.10;;;4.30;93.70;;;;;;5092414;28;20020;-80
2020/12/31 03:20:05;;;;;;;14.57;9.37;;;4.30;93.70;;;;;;5092412;28;20032;-79
2020/12/31 03:22:32;;;;;;;15.70;9.10;;;4.30;93.70;;;;;;5092241;28;20032;-80
2020/12/31 03:24:57;;;;;;;15.40;9.57;;;4.30;93.60;;;;;;5058859;28;20040;-80
2020/12/31 03:27:23;;;;;;;16.97;10.07;;;4.30;93.60;;;;;;5092530;28;20032;-80
2020/12/31 03:29:49;;;;;;;15.10;9.47;;;4.30;93.60;;;;;;5094353;28;20021;-79
2020/12/31 03:32:15;;;;;;;14.67;9.33;;;4.30;93.60;;;;;;5096225;28;20024;-79
2020/12/31 03:34:41;;;;;;;14.37;8.40;;;4.30;93.60;;;;;;5097414;28;20088;-79
2020/12/31 03:37:07;;;;;;;12.53;7.90;;;4.30;93.60;;;;;;5097832;28;20491;-80
2020/12/31 03:39:33;;;;;;;12.93;7.53;;;4.20;93.60;;;;;;5097734;28;20468;-79
2020/12/31 03:41:58;;;;;;;16.23;8.07;;;4.20;93.60;;;;;;5096107;28;20039;-80
2020/12/31 03:44:24;;;;;;;12.40;8.00;;;4.30;93.70;;;;;;5097272;28;20078;-79
2020/12/31 03:46:49;;;;;;;13.97;7.73;;;4.30;93.60;;;;;;5096186;28;20035;-80
2020/12/31 03:49:15;;;;;;;12.77;6.93;;;4.30;93.60;;;;;;5096217;28;20035;-80
2020/12/31 03:51:41;;;;;;;11.97;6.93;;;4.30;93.70;;;;;;5095987;28;20027;-80
2020/12/31 03:54:06;;;;;;;13.17;6.97;;;4.30;93.60;;;;;;5096049;28;20141;-80
2020/12/31 03:56:32;;;;;;;12.30;8.07;;;4.30;93.60;;;;;;5097457;28;20031;-80
2020/12/31 03:58:57;;;;;;;11.43;7.27;;;4.30;93.60;;;;;;5095868;28;20502;-79
2020/12/31 04:01:33;;;;;;;11.73;6.87;;;4.30;93.60;;;;;;5096880;28;20026;-79
2020/12/31 04:03:59;;;;;;;11.80;6.87;;;4.30;93.50;;;;;;5097366;28;20157;-80
2020/12/31 04:06:25;;;;;;;8.97;5.50;;;4.30;93.50;;;;;;5096917;28;20120;-80
2020/12/31 04:08:51;;;;;;;12.67;6.87;;;4.40;93.60;;;;;;5096946;28;20529;-80
2020/12/31 04:11:17;;;;;;;11.07;6.40;;;4.30;93.50;;;;;;5095665;28;20025;-79
2020/12/31 04:13:42;;;;;;;11.43;6.87;;;4.30;93.40;;;;;;5095556;28;20085;-73
2020/12/31 04:16:08;;;;;;;11.23;6.53;;;4.30;93.50;;;;;;5078598;28;20494;-73
2020/12/31 04:18:34;;;;;;;9.63;5.97;;;4.30;93.50;;;;;;5078509;28;20031;-73
2020/12/31 04:20:59;;;;;;;10.63;6.23;;;4.30;93.50;;;;;;5095459;28;20024;-74
2020/12/31 04:23:25;;;;;;;10.90;6.13;;;4.30;93.50;;;;;;5078553;28;20024;-74
2020/12/31 04:25:51;;;;;;;12.63;6.40;;;4.30;93.50;;;;;;5095354;28;20028;-74
2020/12/31 04:28:17;;;;;;;9.90;5.70;;;4.30;93.50;;;;;;5095355;28;20024;-73
2020/12/31 04:30:47;;;;;;;10.00;5.57;;;4.30;93.50;;;;;;5078527;28;20054;-73
2020/12/31 04:33:13;;;;;;;9.20;5.23;;;4.30;93.70;;;;;;5078551;28;20021;-74
2020/12/31 04:35:39;;;;;;;10.00;5.93;;;4.40;93.40;;;;;;5078581;28;20027;-74
2020/12/31 04:38:05;;;;;;;13.20;5.77;;;4.30;93.30;;;;;;5095401;28;20032;-74
2020/12/31 04:40:34;;;;;;;9.90;5.77;;;4.30;93.30;;;;;;5094898;28;20035;-74
2020/12/31 04:43:00;;;;;;;11.23;5.87;;;4.40;93.40;;;;;;5095142;28;20481;-74
2020/12/31 04:45:28;;;;;;;9.37;5.33;;;4.30;93.30;;;;;;5095987;28;20384;-73
2020/12/31 04:47:59;;;;;;;9.93;5.33;;;4.30;93.30;;;;;;5096193;28;20071;-73
2020/12/31 04:50:31;;;;;;;11.23;4.93;;;4.30;93.30;;;;;;5094765;28;20475;-73
2020/12/31 04:53:07;;;;;;;8.17;4.77;;;4.30;93.40;;;;;;5094835;28;20020;-79
2020/12/31 04:55:40;;;;;;;10.50;5.70;;;4.30;93.30;;;;;;5096057;28;20028;-79
2020/12/31 04:58:07;;;;;;;10.77;5.33;;;4.30;93.30;;;;;;5095883;28;20024;-79
2020/12/31 05:00:33;;;;;;;9.10;5.37;;;4.30;93.30;;;;;;5075453;28;20040;-79
2020/12/31 05:02:58;;;;;;;8.83;5.00;;;4.30;93.30;;;;;;5075265;28;20051;-79
2020/12/31 05:05:24;;;;;;;10.20;4.57;;;4.30;93.30;;;;;;5073401;28;20039;-78
2020/12/31 05:07:50;;;;;;;10.23;5.23;;;4.30;93.30;;;;;;5074153;28;20021;-79
2020/12/31 05:10:16;;;;;;;12.00;5.90;;;4.30;93.30;;;;;;5074110;28;20078;-79
2020/12/31 05:12:42;;;;;;;9.33;5.43;;;4.30;93.30;;;;;;5074217;28;20025;-79
2020/12/31 05:15:09;;;;;;;11.50;6.27;;;4.30;93.30;;;;;;5074841;28;20021;-79
2020/12/31 05:17:35;;;;;;;9.77;5.73;;;4.30;93.30;;;;;;5075130;28;20020;-79
2020/12/31 05:20:14;;;;;;;11.90;5.07;;;4.30;93.30;;;;;;5075332;28;20103;-79
2020/12/31 05:22:40;;;;;;;10.93;5.40;;;4.30;93.20;;;;;;5074138;28;20108;-79
2020/12/31 05:25:06;;;;;;;9.90;5.47;;;4.30;93.20;;;;;;5075299;28;20070;-79
2020/12/31 05:27:31;;;;;;;10.43;5.10;;;4.30;93.20;;;;;;5075243;28;20025;-80
2020/12/31 05:30:04;;;;;;;10.67;5.90;;;4.30;93.20;;;;;;5075170;28;20473;-80
2020/12/31 05:32:32;;;;;;;9.50;5.43;;;4.30;93.20;;;;;;5075116;28;20500;-79
2020/12/31 05:34:58;;;;;;;8.90;5.33;;;4.30;93.20;;;;;;5075180;28;20032;-79
2020/12/31 05:37:27;;;;;;;9.37;4.67;;;4.30;93.30;;;;;;5075038;28;20537;-79
2020/12/31 05:40:06;;;;;;;8.30;5.10;;;4.30;93.30;;;;;;5074937;28;20021;-79
2020/12/31 05:42:34;;;;;;;10.03;5.43;;;4.30;93.30;;;;;;5074946;28;20088;-79
2020/12/31 05:45:17;;;;;;;10.00;5.03;;;4.30;93.20;;;;;;5074671;28;20045;-80
2020/12/31 05:47:51;;;;;;;8.67;4.57;;;4.30;93.20;;;;;;5074533;28;20035;-79
2020/12/31 05:50:18;;;;;;;;;;;4.30;93.20;;;;;;5075167;28;20020;-79
2020/12/31 05:52:44;;;;;;;8.60;4.37;;;4.30;93.10;;;;;;5074447;28;20272;-79
2020/12/31 05:55:10;;;;;;;8.53;4.40;;;4.30;93.30;;;;;;5074708;28;20127;-79
2020/12/31 05:57:57;;;;;;;9.57;3.73;;;4.30;93.30;;;;;;5073338;28;20040;-80
2020/12/31 06:00:25;;;;;;;9.43;4.57;;;4.20;93.00;;;;;;5073465;28;20033;-79
2020/12/31 06:03:01;;;;;;;5.73;3.23;;;4.20;93.00;;;;;;5055043;28;20448;-80
2020/12/31 06:05:28;;;;;;;9.77;3.70;;;4.30;93.00;;;;;;5073955;28;20039;-79
2020/12/31 06:07:58;;;;;;;9.53;3.93;;;4.20;92.90;;;;;;5074353;28;20020;-80
2020/12/31 06:10:28;;;;;;;6.83;4.17;;;4.20;92.90;;;;;;5074028;28;20028;-79
2020/12/31 06:12:59;;;;;;;8.00;3.73;;;4.20;92.90;;;;;;5072438;28;20048;-80
2020/12/31 06:15:26;;;;;;;9.33;3.80;;;4.20;93.00;;;;;;5074086;28;20021;-79
2020/12/31 06:17:52;;;;;;;5.93;3.50;;;4.20;93.00;;;;;;5074188;28;20028;-79
2020/12/31 06:20:20;;;;;;;6.07;3.10;;;4.20;93.00;;;;;;5074335;28;20048;-79
2020/12/31 06:22:59;;;;;;;9.00;3.90;;;4.20;93.00;;;;;;5072672;28;20095;-79
2020/12/31 06:25:44;;;;;;;6.80;3.70;;;4.20;93.00;;;;;;5090897;28;20032;-79
2020/12/31 06:28:21;;;;;;;9.73;3.23;;;4.20;93.00;;;;;;5093260;28;20099;-79
2020/12/31 06:30:51;;;;;;;6.30;3.00;;;4.20;93.00;;;;;;5092686;28;20091;-80
2020/12/31 06:33:32;;;;;;;9.40;3.67;;;4.20;93.00;;;;;;5092960;28;20024;-79
2020/12/31 06:36:03;;;;;;;7.80;3.83;;;4.20;93.00;;;;;;5092766;28;20028;-80
2020/12/31 06:38:41;;;;;;;6.93;2.87;;;4.20;93.00;;;;;;5091969;28;20039;-79
2020/12/31 06:41:35;;;;;;;6.63;3.10;;;4.20;93.00;;;;;;5094091;28;20502;-80
2020/12/31 06:44:16;;;;;;;6.97;2.73;;;4.20;93.00;;;;;;5087695;28;20032;-80
2020/12/31 06:46:44;;;;;;;6.50;2.70;;;4.20;92.90;;;;;;5093655;28;20556;-79
2020/12/31 06:49:10;;;;;;;6.40;3.30;;;4.30;92.90;;;;;;5092601;28;20024;-79
2020/12/31 06:51:36;;;;;;;5.40;2.57;;;4.20;92.80;;;;;;5092534;28;20016;-79
2020/12/31 06:54:02;;;;;;;7.80;2.90;;;4.20;92.80;;;;;;5092760;28;20032;-79
2020/12/31 06:56:48;;;;;;;5.67;2.97;;;4.20;92.80;;;;;;5092376;28;20016;-79
2020/12/31 06:59:27;;;;;;;6.53;2.77;;;4.20;92.90;;;;;;5093716;28;20524;-79
2020/12/31 07:01:55;;;;;;;7.93;2.67;;;4.20;92.80;;;;;;5093649;28;20028;-79
2020/12/31 07:04:27;;;;;;;6.27;2.83;;;4.20;92.90;;;;;;5091873;28;20021;-80
2020/12/31 07:06:53;;;;;;;6.20;2.13;;;4.20;92.90;;;;;;5092443;28;20379;-79
2020/12/31 07:09:29;;;;;;;6.63;2.50;;;4.20;92.90;;;;;;5092380;28;20099;-79
2020/12/31 07:12:00;;;;;;;5.27;1.90;;;4.20;92.90;;;;;;5093592;28;20047;-79
2020/12/31 07:14:28;;;;;;;6.30;2.60;;;4.20;93.10;;;;;;5075749;28;20027;-79
2020/12/31 07:16:59;;;;;;;6.33;2.57;;;4.20;92.80;;;;;;5092505;28;20074;-79
2020/12/31 07:19:39;;;;;;;5.20;2.33;;;4.30;92.90;;;;;;5093508;28;20039;-79
2020/12/31 07:22:15;;;;;;;5.87;1.90;;;4.20;92.90;;;;;;5093936;28;20028;-79
2020/12/31 07:24:47;;;;;;;4.73;2.50;;;4.20;92.90;;;;;;5092260;28;20066;-80
2020/12/31 07:27:31;;;;;;;7.27;2.23;;;4.20;92.90;;;;;;5092072;28;20492;-79
2020/12/31 07:30:07;;;;;;;3.75;1.80;;;4.30;92.90;;;;;;5092184;28;20021;-79
2020/12/31 07:32:52;;;;;;;4.47;2.27;;;4.30;92.90;;;;;;5093399;28;20068;-80
2020/12/31 07:35:20;;;;;;;5.50;2.53;;;4.30;92.80;;;;;;5092143;28;20028;-79
2020/12/31 07:37:57;;;;;;;6.47;2.37;;;4.30;92.70;;;;;;5093366;28;20547;-79
2020/12/31 07:40:30;;;;;;;6.13;2.10;;;4.30;92.80;;;;;;5093439;28;20476;-79
2020/12/31 07:42:56;;;;;;;5.70;2.23;;;4.30;92.80;;;;;;5093407;28;20016;-73
2020/12/31 07:45:23;;;;;;;7.73;2.83;;;4.30;92.80;;;;;;5093181;28;20044;-73
2020/12/31 07:47:52;;;;;;;5.87;2.80;;;4.40;92.70;;;;;;5093317;28;20040;-73
2020/12/31 07:50:19;;;;;;;5.90;2.23;;;4.30;92.70;;;;;;5089899;28;20032;-73
2020/12/31 07:52:45;;;;;;;6.13;2.40;;;4.30;92.70;;;;;;5076541;28;20029;-73
2020/12/31 07:55:11;;;;;;;7.60;2.23;;;4.40;92.70;;;;;;5071661;28;20069;-73
2020/12/31 07:57:38;;;;;;;4.27;1.80;;;4.40;92.90;;;;;;5070784;28;20036;-73
2020/12/31 08:00:05;;;;;;;4.43;1.53;;;4.30;92.60;;;;;;5080426;28;20492;-73
2020/12/31 08:02:31;;;;;;;6.63;1.87;;;4.40;92.50;;;;;;5081738;28;20032;-73
2020/12/31 08:04:56;;;;;;;5.57;1.83;;;4.30;92.40;;;;;;5046278;28;20028;-73
2020/12/31 08:07:23;;;;;;;6.00;1.87;;;4.30;92.40;;;;;;5037998;28;20024;-73
2020/12/31 08:09:52;;;;;;;8.67;3.53;;;4.30;92.50;;;;;;5054874;28;20021;-73
2020/12/31 08:12:17;;;;;;;6.23;2.57;;;4.30;92.50;;;;;;5071578;28;20025;-73
2020/12/31 08:14:44;;;;;;;6.13;1.90;;;4.30;92.50;;;;;;5054934;28;20031;-73
2020/12/31 08:17:11;;;;;;;6.00;2.67;;;4.30;92.50;;;;;;5091282;28;20503;-73
2020/12/31 08:19:38;;;;;;;4.10;2.00;;;4.30;92.50;;;;;;5076240;28;20028;-73
2020/12/31 08:22:10;;;;;;;5.17;1.83;;;4.30;92.60;;;;;;5074981;28;20102;-74
2020/12/31 08:24:44;;;;;;;6.13;1.67;;;4.30;92.60;;;;;;5084506;28;20028;-73
2020/12/31 08:27:16;;;;;;;3.33;1.50;;;4.40;92.60;;;;;;5085611;28;20031;-75
2020/12/31 08:29:43;;;;;;;5.00;1.23;;;4.30;92.50;;;;;;5077613;28;20021;-74
2020/12/31 08:32:13;;;;;;;4.83;1.63;;;4.30;92.50;;;;;;5074932;28;20028;-73
2020/12/31 08:34:39;;;;;;;2.87;1.10;;;4.30;92.40;;;;;;5076060;28;20025;-73
2020/12/31 08:37:04;;;;;;;5.10;1.33;;;4.40;92.50;;;;;;5067437;28;20054;-73
2020/12/31 08:39:32;;;;;;;4.17;1.33;;;4.30;92.80;;;;;;5076164;28;20039;-74
2020/12/31 08:41:59;;;;;;;6.13;1.77;;;4.40;92.50;;;;;;5058505;28;20043;-74
2020/12/31 08:44:26;;;;;;;3.97;1.63;;;4.40;92.50;;;;;;5074530;28;20028;-75
2020/12/31 08:46:52;;;;;;;3.83;1.37;;;4.40;92.50;;;;;;5075755;28;20082;-74
2020/12/31 08:49:27;;;;;;;4.53;1.60;;;4.40;92.50;;;;;;5057858;28;20468;-74
2020/12/31 08:51:53;;;;;;;3.70;1.40;;;4.40;92.50;;;;;;5074667;28;20029;-74
2020/12/31 08:54:20;;;;;;;3.77;1.60;;;4.40;92.40;;;;;;5075587;28;20108;-73
2020/12/31 08:56:45;;;;;;;3.33;1.40;;;4.40;92.30;;;;;;5075777;28;20033;-73
2020/12/31 08:59:12;;;;;;;3.53;1.60;;;4.40;92.40;;;;;;5074199;28;20024;-73
2020/12/31 09:01:41;;;;;;;2.97;1.40;;;4.40;92.50;;;;;;5074284;28;20120;-74
2020/12/31 09:04:11;;;;;;;4.63;1.67;;;4.40;92.50;;;;;;5075414;28;20025;-74
2020/12/31 09:06:42;;;;;;;4.07;1.83;;;4.40;92.60;;;;;;5075432;28;20035;-74
2020/12/31 09:09:16;;;;;;;3.33;1.47;;;4.50;92.60;;;;;;5074147;28;20017;-73
2020/12/31 09:12:04;;;;;;;5.72;1.58;;;4.50;92.60;;;;;;5074040;28;20020;-73
2020/12/31 09:14:37;;;;;;;4.90;1.50;;;4.50;92.60;;;;;;5075568;28;20503;-73
2020/12/31 09:17:25;;;;;;;3.25;1.33;;;4.50;92.70;;;;;;5075329;28;20048;-73
2020/12/31 09:19:54;;;;;;;4.50;1.70;;;4.50;92.70;;;;;;5073992;28;20020;-73
2020/12/31 09:22:20;;;;;;;4.47;1.70;;;4.60;92.70;;;;;;5075126;28;20031;-73
2020/12/31 09:24:46;;;;;;;4.33;1.80;;;4.60;92.70;;;;;;5058424;28;20025;-73
2020/12/31 09:27:22;;;;;;;4.03;1.97;;;4.60;92.70;;;;;;5073247;28;20056;-73
2020/12/31 09:29:59;;;;;;;4.83;2.30;;;4.60;92.70;;;;;;5075112;28;20099;-73
2020/12/31 09:32:24;;;;;;;4.97;2.00;;;4.70;92.70;;;;;;5090657;28;20103;-73
2020/12/31 09:34:50;;;;;;;3.73;2.07;;;4.80;92.60;;;;;;5090481;28;20052;-73
2020/12/31 09:37:16;;;;;;;5.93;2.27;;;4.80;92.60;;;;;;5073658;28;20028;-73
2020/12/31 09:39:43;;;;;;;6.40;2.30;;;4.80;92.60;;;;;;5074903;28;20032;-73
2020/12/31 09:42:08;;;;;;;6.60;2.30;;;4.90;92.50;;;;;;5057127;28;20031;-73
2020/12/31 09:44:34;;;;;;;6.53;2.47;;;4.90;92.40;;;;;;5090197;28;20028;-74
2020/12/31 09:47:00;;;;;;;5.90;1.93;;;4.80;92.30;;;;;;5056825;28;20044;-73
2020/12/31 09:49:25;;;;;;;4.70;2.30;;;4.90;92.30;;;;;;5073373;28;20039;-74
2020/12/31 09:51:51;;;;;;;5.03;2.07;;;4.80;92.10;;;;;;5073287;28;20028;-73
2020/12/31 09:54:17;;;;;;;6.07;2.80;;;4.80;92.00;;;;;;5074462;28;20040;-73
2020/12/31 09:56:42;;;;;;;4.50;2.43;;;4.80;92.20;;;;;;5073210;28;20032;-73
2020/12/31 09:59:08;;;;;;;4.70;2.57;;;4.80;92.20;;;;;;5056622;28;20039;-73
2020/12/31 10:01:34;;;;;;;5.70;3.43;;;4.80;92.20;;;;;;5078734;28;20550;-73
2020/12/31 10:04:00;;;;;;;8.40;3.10;;;4.80;92.20;;;;;;5083427;28;20032;-73
2020/12/31 10:06:25;;;;;;;7.00;4.03;;;4.80;92.50;;;;;;5084038;28;20114;-73
2020/12/31 10:08:52;;;;;;;7.10;3.90;;;4.80;92.20;;;;;;5073842;28;20047;-74
2020/12/31 10:11:18;;;;;;;6.43;3.17;;;4.80;92.20;;;;;;5056021;28;20028;-74
2020/12/31 10:13:44;;;;;;;6.10;3.57;;;4.90;92.20;;;;;;5072738;28;20029;-74
2020/12/31 10:16:09;;;;;;;7.70;3.67;;;4.90;92.20;;;;;;5071938;28;20119;-73
2020/12/31 10:18:35;;;;;;;5.83;2.97;;;4.90;92.10;;;;;;5037929;28;20039;-74
2020/12/31 10:21:00;;;;;;;4.77;2.97;;;5.00;92.20;;;;;;5038813;28;20025;-83
2020/12/31 10:23:26;;;;;;;5.80;3.70;;;5.00;92.10;;;;;;5038828;28;20033;-84
2020/12/31 10:25:52;;;;;;;6.17;3.40;;;5.10;92.00;;;;;;5056248;28;20024;-84
2020/12/31 10:28:19;;;;;;;7.37;3.90;;;5.10;92.00;;;;;;5073981;28;20024;-83
2020/12/31 10:30:45;;;;;;;6.90;3.37;;;5.10;92.00;;;;;;5072761;28;20035;-83
2020/12/31 10:33:11;;;;;;;7.20;4.07;;;5.10;92.00;;;;;;5056286;28;20128;-81
2020/12/31 10:35:37;;;;;;;6.17;3.70;;;5.20;92.10;;;;;;5073954;28;20068;-80
2020/12/31 10:38:03;;;;;;;8.67;5.67;;;5.20;92.00;;;;;;5055744;28;20032;-80
2020/12/31 10:40:29;;;;;;;11.40;7.10;;;5.20;92.00;;;;;;5071778;28;20021;-80
2020/12/31 10:42:55;;;;;;;10.47;5.30;;;5.20;91.90;;;;;;5073788;28;20384;-80
2020/12/31 10:45:20;;;;;;;9.53;5.10;;;5.20;92.00;;;;;;5072064;28;20130;-80
2020/12/31 10:47:46;;;;;;;8.63;4.90;;;5.30;92.00;;;;;;5073420;28;20036;-81
2020/12/31 10:50:11;;;;;;;7.50;4.07;;;5.30;92.00;;;;;;5072531;28;20500;-80
2020/12/31 10:52:37;;;;;;;8.37;4.47;;;5.30;92.00;;;;;;5072405;28;20036;-80
2020/12/31 10:55:03;;;;;;;6.43;3.97;;;5.40;92.00;;;;;;5072263;28;20098;-80
2020/12/31 10:57:28;;;;;;;7.30;4.00;;;5.40;92.00;;;;;;5072760;28;20055;-82
2020/12/31 10:59:54;;;;;;;7.50;4.10;;;5.40;92.00;;;;;;5073377;28;20090;-84
2020/12/31 11:02:20;;;;;;;6.70;3.87;;;5.40;92.00;;;;;;5071986;28;20059;-82
2020/12/31 11:04:45;;;;;;;7.00;4.00;;;5.50;92.00;;;;;;5073319;28;20032;-82
2020/12/31 11:07:11;;;;;;;6.07;3.73;;;5.50;91.90;;;;;;5055281;28;20036;-73
2020/12/31 11:09:36;;;;;;;6.53;3.60;;;5.50;91.90;;;;;;5073638;28;20056;-74
2020/12/31 11:12:02;;;;;;;6.87;3.90;;;5.60;91.90;;;;;;5055409;28;20059;-74
2020/12/31 11:14:28;;;;;;;5.90;3.47;;;5.50;91.90;;;;;;5073287;28;20029;-74
2020/12/31 11:16:53;;;;;;;7.47;4.17;;;5.60;92.00;;;;;;5071805;28;20031;-75
2020/12/31 11:19:20;;;;;;;6.10;3.80;;;5.70;92.00;;;;;;5055246;28;20116;-75
2020/12/31 11:21:45;;;;;;;6.43;3.53;;;5.80;92.00;;;;;;5073159;28;20112;-74
2020/12/31 11:24:11;;;;;;;6.33;3.80;;;5.80;92.00;;;;;;5038744;28;20052;-74
2020/12/31 11:26:37;;;;;;;5.33;3.20;;;6.00;92.10;;;;;;5073053;28;20040;-74
2020/12/31 11:29:03;;;;;;;5.43;3.37;;;6.10;92.10;;;;;;5071803;28;20027;-74
2020/12/31 11:31:30;;;;;;;5.60;3.30;;;6.30;92.20;;;;;;5072917;28;20031;-74
2020/12/31 11:33:56;;;;;;;4.60;3.20;;;6.50;92.30;;;;;;5072608;28;20468;-74
2020/12/31 11:36:24;;;;;;;5.40;3.17;;;6.70;92.40;;;;;;5071778;28;20166;-75
2020/12/31 11:38:51;;;;;;;6.90;3.90;;;7.00;92.80;;;;;;5073048;28;20025;-75
2020/12/31 11:41:17;;;;;;;141.83;108.60;;;7.10;92.40;;;;;;5071479;28;20033;-75
2020/12/31 11:43:42;;;;;;;34.47;25.53;;;7.30;92.20;;;;;;5071719;28;20472;-74
2020/12/31 11:46:08;;;;;;;20.87;15.03;;;7.40;91.90;;;;;;5071515;28;20531;-75
2020/12/31 11:48:34;;;;;;;15.10;10.43;;;7.50;91.70;;;;;;5071655;28;20373;-74
2020/12/31 11:51:02;;;;;;;12.57;7.97;;;7.60;91.50;;;;;;5072958;28;20469;-74
2020/12/31 11:53:28;;;;;;;10.70;6.40;;;7.70;91.40;;;;;;5059157;28;20024;-74
2020/12/31 11:55:54;;;;;;;7.97;4.40;;;7.80;91.20;;;;;;5076737;28;20099;-75
2020/12/31 11:58:20;;;;;;;6.67;3.80;;;7.90;91.20;;;;;;5076567;28;20037;-74
2020/12/31 12:00:46;;;;;;;6.70;3.47;;;8.00;91.10;;;;;;5076478;28;20048;-75
2020/12/31 12:03:11;;;;;;;4.37;2.60;;;8.30;90.90;;;;;;5075160;28;20037;-74
2020/12/31 12:05:37;;;;;;;5.77;3.40;;;8.30;90.60;;;;;;5075242;28;20101;-74
2020/12/31 12:08:06;;;;;;;6.10;3.20;;;8.40;90.30;;;;;;5075267;28;20032;-74
2020/12/31 12:10:33;;;;;;;4.73;2.83;;;8.40;89.20;;;;;;5075124;28;20464;-75
2020/12/31 12:12:58;;;;;;;5.57;3.43;;;8.40;88.60;;;;;;5076414;28;20145;-75
2020/12/31 12:15:24;;;;;;;6.33;4.07;;;8.30;87.10;;;;;;5075413;28;20116;-74
2020/12/31 12:17:51;;;;;;;8.00;4.40;;;8.20;87.10;;;;;;5074921;28;20032;-73
2020/12/31 12:20:17;;;;;;;6.67;4.30;;;8.10;86.50;;;;;;5058578;28;20056;-76
2020/12/31 12:22:43;;;;;;;7.20;4.03;;;7.90;85.90;;;;;;5058474;28;20025;-73
2020/12/31 12:25:09;;;;;;;6.97;3.90;;;7.80;85.70;;;;;;5076281;28;20031;-73
2020/12/31 12:27:35;;;;;;;6.80;4.40;;;7.70;85.50;;;;;;5075884;28;20383;-74
2020/12/31 12:30:05;;;;;;;7.30;4.07;;;7.60;85.10;;;;;;5074987;28;20023;-83
2020/12/31 12:32:31;;;;;;;7.27;4.60;;;7.50;84.80;;;;;;5076598;28;20530;-83
2020/12/31 12:34:56;;;;;;;9.80;4.90;;;7.40;84.70;;;;;;5075016;28;20032;-83
2020/12/31 12:37:22;;;;;;;6.13;4.13;;;7.30;84.70;;;;;;5076261;28;20033;-83
2020/12/31 12:39:48;;;;;;;8.10;4.67;;;7.20;84.70;;;;;;5076225;28;20032;-83
2020/12/31 12:42:14;;;;;;;8.87;4.83;;;7.00;84.70;;;;;;5074955;28;20071;-83
2020/12/31 12:44:40;;;;;;;8.47;5.17;;;7.00;84.70;;;;;;5074677;28;20033;-83
2020/12/31 12:47:05;;;;;;;10.17;4.93;;;6.90;84.70;;;;;;5058222;28;20602;-81
2020/12/31 12:49:31;;;;;;;8.70;5.70;;;6.90;84.80;;;;;;5074844;28;20032;-82
2020/12/31 12:51:56;;;;;;;7.67;4.83;;;6.80;84.80;;;;;;5057405;28;20020;-74
2020/12/31 12:54:22;;;;;;;17.07;9.20;;;6.70;85.00;;;;;;5040709;28;20029;-75
2020/12/31 12:56:51;;;;;;;18.87;11.30;;;6.70;85.30;;;;;;5074275;28;20121;-74